Time;durP1;ratioP1;P1;durP2;ratioP2;P2;SDS_P1;SDS_P2;PMS_P1;PMS_P2;Temp;Humidity;BMP_temperature;BMP_pressure;BME280_temperature;BME280_humidity;BME280_pressure;Samples;Min_cycle;Max_cycle;Signal;HPM_P1;HPM_P2
2021/07/08 00:01:54;;;;;;;0.00;0.00;;;19.00;99.90;;;;;;5035168;28;20499;-71
2021/07/08 00:04:19;;;;;;;0.00;0.00;;;18.90;99.90;;;;;;5034747;28;20052;-71
2021/07/08 00:06:46;;;;;;;0.50;0.22;;;19.00;99.90;;;;;;5052636;28;20546;-71
2021/07/08 00:09:12;;;;;;;0.10;0.10;;;19.10;99.90;;;;;;5052591;28;20155;-71
2021/07/08 00:11:38;;;;;;;0.30;0.30;;;19.10;99.90;;;;;;5034609;28;20451;-71
2021/07/08 00:14:05;;;;;;;0.00;0.00;;;18.90;99.90;;;;;;5017929;28;20035;-71
2021/07/08 00:16:32;;;;;;;0.00;0.00;;;19.00;99.90;;;;;;5034854;28;20384;-72
2021/07/08 00:18:58;;;;;;;0.00;0.00;;;19.10;99.90;;;;;;5052307;28;20028;-71
2021/07/08 00:21:25;;;;;;;0.00;0.00;;;19.00;99.90;;;;;;5052317;28;20045;-72
2021/07/08 00:23:51;;;;;;;0.00;0.00;;;19.00;99.90;;;;;;5052211;28;20025;-71
2021/07/08 00:26:17;;;;;;;0.00;0.00;;;19.00;99.90;;;;;;5052216;28;20029;-71
2021/07/08 00:28:43;;;;;;;0.00;0.00;;;18.90;99.90;;;;;;5034213;28;20548;-71
2021/07/08 00:31:09;;;;;;;0.00;0.00;;;19.00;99.90;;;;;;5052126;28;20112;-71
2021/07/08 00:33:36;;;;;;;0.00;0.00;;;19.10;99.90;;;;;;5052081;28;20020;-71
2021/07/08 00:36:03;;;;;;;0.00;0.00;;;18.90;99.90;;;;;;5052144;28;20031;-71
2021/07/08 00:38:29;;;;;;;0.73;0.73;;;18.70;99.90;;;;;;5051874;28;20017;-71
2021/07/08 00:40:55;;;;;;;0.00;0.00;;;18.90;99.90;;;;;;5034183;28;20523;-71
2021/07/08 00:43:21;;;;;;;0.63;0.63;;;18.90;99.90;;;;;;5034201;28;20053;-71
2021/07/08 00:45:47;;;;;;;0.00;0.00;;;19.00;99.90;;;;;;5052011;28;20082;-71
2021/07/08 00:48:12;;;;;;;1.08;0.80;;;19.00;99.90;;;;;;5051562;28;20520;-71
2021/07/08 00:50:46;;;;;;;0.00;0.00;;;19.00;99.90;;;;;;5034052;28;20392;-71
2021/07/08 00:53:13;;;;;;;0.00;0.00;;;19.10;99.90;;;;;;5051731;28;20504;-71
2021/07/08 00:55:40;;;;;;;0.00;0.00;;;19.10;99.90;;;;;;5034007;28;20449;-71
2021/07/08 00:58:09;;;;;;;0.00;0.00;;;19.10;99.90;;;;;;5017126;28;20067;-71
2021/07/08 01:00:36;;;;;;;0.00;0.00;;;19.10;99.90;;;;;;5051759;28;20013;-71
2021/07/08 01:03:07;;;;;;;0.00;0.00;;;18.90;99.90;;;;;;5033826;28;20054;-71
2021/07/08 01:05:36;;;;;;;0.05;0.05;;;18.80;99.90;;;;;;5034325;28;20024;-72
2021/07/08 01:08:03;;;;;;;0.00;0.00;;;18.90;99.90;;;;;;5051589;28;20346;-71
2021/07/08 01:10:29;;;;;;;0.00;0.00;;;18.90;99.90;;;;;;5051720;28;20025;-71
2021/07/08 01:12:55;;;;;;;0.00;0.00;;;18.90;99.90;;;;;;5051560;28;20387;-71
2021/07/08 01:15:21;;;;;;;0.00;0.00;;;18.90;99.90;;;;;;5051625;28;20032;-71
2021/07/08 01:17:48;;;;;;;0.00;0.00;;;19.10;99.90;;;;;;5051555;28;20421;-71
2021/07/08 01:20:16;;;;;;;0.15;0.15;;;19.10;99.90;;;;;;5051603;28;20032;-71
2021/07/08 01:22:42;;;;;;;0.00;0.00;;;19.10;99.90;;;;;;5051618;28;20074;-71
2021/07/08 01:25:10;;;;;;;0.00;0.00;;;19.00;99.90;;;;;;5054209;28;20028;-71
2021/07/08 01:27:37;;;;;;;0.00;0.00;;;19.10;99.90;;;;;;5037661;28;20542;-71
2021/07/08 01:30:06;;;;;;;0.08;0.08;;;19.10;99.90;;;;;;5055648;28;20025;-71
2021/07/08 01:32:32;;;;;;;0.00;0.00;;;19.10;99.90;;;;;;5055432;28;20056;-71
2021/07/08 01:34:57;;;;;;;0.00;0.00;;;19.10;99.90;;;;;;5055374;28;20371;-71
2021/07/08 01:37:23;;;;;;;0.00;0.00;;;19.00;99.90;;;;;;5037421;28;20021;-71
2021/07/08 01:39:49;;;;;;;0.00;0.00;;;18.90;99.90;;;;;;5055639;28;20056;-72
2021/07/08 01:42:15;;;;;;;0.00;0.00;;;19.00;99.90;;;;;;5055281;28;20025;-71
2021/07/08 01:44:41;;;;;;;0.00;0.00;;;19.00;99.90;;;;;;5055334;28;20037;-71
2021/07/08 01:47:07;;;;;;;0.00;0.00;;;18.90;99.90;;;;;;5037253;28;20400;-71
2021/07/08 01:49:34;;;;;;;0.00;0.00;;;19.00;99.90;;;;;;5069286;22;20045;-73
2021/07/08 01:52:00;;;;;;;0.00;0.00;;;19.00;99.90;;;;;;5055034;28;20119;-73
2021/07/08 01:54:26;;;;;;;0.00;0.00;;;19.00;99.90;;;;;;5036918;28;20055;-73
2021/07/08 01:56:52;;;;;;;0.00;0.00;;;19.00;99.90;;;;;;5037222;28;20021;-73
2021/07/08 01:59:17;;;;;;;0.00;0.00;;;19.00;99.90;;;;;;5054626;28;20464;-73
2021/07/08 02:01:43;;;;;;;0.57;0.35;;;19.00;99.90;;;;;;5037048;28;20056;-73
2021/07/08 02:04:10;;;;;;;0.00;0.00;;;18.90;99.90;;;;;;5054807;28;20029;-73
2021/07/08 02:06:35;;;;;;;0.00;0.00;;;18.80;99.90;;;;;;5036841;28;20033;-73
2021/07/08 02:09:04;;;;;;;0.00;0.00;;;18.80;99.90;;;;;;5036755;28;20074;-73
2021/07/08 02:11:30;;;;;;;0.00;0.00;;;18.70;99.90;;;;;;5054717;28;20033;-73
2021/07/08 02:13:56;;;;;;;0.00;0.00;;;18.80;99.90;;;;;;5036747;28;20032;-73
2021/07/08 02:16:21;;;;;;;0.00;0.00;;;18.70;99.90;;;;;;5054707;28;20028;-73
2021/07/08 02:18:47;;;;;;;0.00;0.00;;;18.70;99.90;;;;;;5036494;28;20489;-73
2021/07/08 02:21:13;;;;;;;0.00;0.00;;;18.70;99.90;;;;;;5054442;28;20052;-73
2021/07/08 02:23:39;;;;;;;0.00;0.00;;;18.60;99.90;;;;;;5036554;28;20096;-73
2021/07/08 02:26:06;;;;;;;0.00;0.00;;;18.60;99.90;;;;;;5054503;28;20496;-73
2021/07/08 02:28:33;;;;;;;0.00;0.00;;;18.70;99.90;;;;;;5054270;28;20032;-73
2021/07/08 02:30:59;;;;;;;0.47;0.47;;;18.70;99.90;;;;;;5020313;28;20078;-73
2021/07/08 02:33:25;;;;;;;1.35;1.00;;;18.70;99.90;;;;;;5036151;28;20025;-73
2021/07/08 02:35:52;;;;;;;0.00;0.00;;;18.60;99.90;;;;;;5053060;28;20451;-73
2021/07/08 02:38:18;;;;;;;0.85;0.85;;;18.80;99.90;;;;;;5054028;28;20018;-73
2021/07/08 02:40:44;;;;;;;0.00;0.00;;;18.60;99.90;;;;;;5036670;28;20096;-73
2021/07/08 02:43:10;;;;;;;0.00;0.00;;;18.50;99.90;;;;;;5036097;28;20053;-73
2021/07/08 02:45:39;;;;;;;1.98;0.20;;;18.30;99.90;;;;;;5054116;28;20090;-73
2021/07/08 02:48:08;;;;;;;0.00;0.00;;;18.40;99.90;;;;;;5036005;28;20098;-73
2021/07/08 02:50:35;;;;;;;0.00;0.00;;;18.40;99.90;;;;;;5019715;28;20037;-73
2021/07/08 02:53:01;;;;;;;0.00;0.00;;;18.50;99.90;;;;;;5035849;28;20033;-73
2021/07/08 02:55:27;;;;;;;0.00;0.00;;;18.60;99.90;;;;;;5053867;28;20100;-73
2021/07/08 02:57:53;;;;;;;0.52;0.52;;;18.60;99.90;;;;;;5053815;28;20075;-73
2021/07/08 03:00:24;;;;;;;0.00;0.00;;;18.70;99.90;;;;;;5053543;28;20017;-73
2021/07/08 03:02:50;;;;;;;0.13;0.13;;;18.80;99.90;;;;;;5036024;28;20021;-73
2021/07/08 03:05:17;;;;;;;0.52;0.52;;;18.70;99.90;;;;;;5053675;28;20032;-73
2021/07/08 03:07:43;;;;;;;0.00;0.00;;;18.60;99.90;;;;;;5053864;28;20032;-74
2021/07/08 03:10:12;;;;;;;0.00;0.00;;;18.60;99.90;;;;;;5053594;28;20025;-73
2021/07/08 03:12:38;;;;;;;0.30;0.30;;;18.70;99.90;;;;;;5035587;28;20440;-73
2021/07/08 03:15:06;;;;;;;4.28;1.65;;;18.70;99.90;;;;;;5053399;28;20396;-73
2021/07/08 03:17:32;;;;;;;0.38;0.38;;;18.60;99.90;;;;;;5053210;28;20481;-74
2021/07/08 03:19:58;;;;;;;1.38;1.27;;;18.70;99.90;;;;;;5035418;28;20197;-73
2021/07/08 03:22:24;;;;;;;0.08;0.08;;;18.60;99.90;;;;;;5053277;28;20025;-73
2021/07/08 03:24:50;;;;;;;0.65;0.52;;;18.70;99.90;;;;;;5035419;28;20035;-73
2021/07/08 03:27:15;;;;;;;0.00;0.00;;;18.70;99.90;;;;;;5035152;28;20036;-73
2021/07/08 03:29:41;;;;;;;0.20;0.20;;;18.50;99.90;;;;;;5053119;28;20032;-74
2021/07/08 03:32:08;;;;;;;0.00;0.00;;;18.50;99.90;;;;;;5053184;28;20025;-74
2021/07/08 03:34:35;;;;;;;0.00;0.00;;;18.60;99.90;;;;;;5053066;28;20121;-73
2021/07/08 03:37:01;;;;;;;0.05;0.05;;;18.70;99.90;;;;;;5053107;28;20116;-73
2021/07/08 03:39:27;;;;;;;0.90;0.85;;;18.70;99.90;;;;;;5052842;28;20049;-73
2021/07/08 03:41:53;;;;;;;0.15;0.15;;;18.60;99.90;;;;;;5052898;28;20440;-73
2021/07/08 03:44:20;;;;;;;0.00;0.00;;;18.60;99.90;;;;;;5052941;28;20060;-74
2021/07/08 03:46:46;;;;;;;0.10;0.10;;;18.60;99.90;;;;;;5034806;28;20173;-74
2021/07/08 03:49:11;;;;;;;0.32;0.32;;;18.60;99.90;;;;;;5052535;28;20029;-74
2021/07/08 03:51:38;;;;;;;0.30;0.30;;;18.60;99.90;;;;;;5034836;28;20094;-74
2021/07/08 03:54:04;;;;;;;0.00;0.00;;;18.70;99.90;;;;;;5052607;28;20075;-74
2021/07/08 03:56:30;;;;;;;1.17;0.85;;;18.80;99.90;;;;;;5034819;28;20044;-74
2021/07/08 03:58:56;;;;;;;0.00;0.00;;;18.70;99.90;;;;;;5052431;28;20090;-74
2021/07/08 04:01:21;;;;;;;0.00;0.00;;;18.50;99.90;;;;;;5052603;28;20028;-73
2021/07/08 04:03:47;;;;;;;0.00;0.00;;;18.50;99.90;;;;;;5034700;28;20111;-73
2021/07/08 04:06:13;;;;;;;4.10;2.10;;;18.60;99.90;;;;;;5052555;28;20370;-73
2021/07/08 04:08:38;;;;;;;0.15;0.15;;;18.70;99.90;;;;;;5052213;28;20104;-74
2021/07/08 04:11:05;;;;;;;1.25;0.70;;;18.70;99.90;;;;;;5052675;28;20033;-74
2021/07/08 04:13:30;;;;;;;0.20;0.20;;;18.70;99.90;;;;;;5034365;28;20025;-74
2021/07/08 04:15:56;;;;;;;0.00;0.00;;;18.70;99.90;;;;;;5018055;28;20039;-74
2021/07/08 04:18:22;;;;;;;0.38;0.38;;;18.60;99.90;;;;;;5052206;28;20096;-74
2021/07/08 04:20:48;;;;;;;0.00;0.00;;;18.70;99.90;;;;;;5052263;28;20096;-73
2021/07/08 04:23:15;;;;;;;1.65;1.10;;;18.60;99.90;;;;;;5052093;28;20044;-73
2021/07/08 04:25:41;;;;;;;0.00;0.00;;;18.60;99.90;;;;;;5052201;28;20025;-74
2021/07/08 04:28:08;;;;;;;0.80;0.77;;;18.60;99.90;;;;;;5052000;28;20055;-74
2021/07/08 04:30:35;;;;;;;0.00;0.00;;;18.50;99.90;;;;;;5034209;28;20079;-74
2021/07/08 04:33:01;;;;;;;0.00;0.00;;;18.40;99.90;;;;;;5034012;28;20427;-74
2021/07/08 04:35:31;;;;;;;0.00;0.00;;;18.50;99.90;;;;;;5034138;28;20025;-73
2021/07/08 04:37:58;;;;;;;0.00;0.00;;;18.50;99.90;;;;;;5051879;28;20025;-74
2021/07/08 04:40:24;;;;;;;0.60;0.60;;;18.60;99.90;;;;;;5052039;28;20022;-73
2021/07/08 04:42:51;;;;;;;0.00;0.00;;;18.60;99.90;;;;;;5051882;28;20013;-74
2021/07/08 04:45:17;;;;;;;3.83;2.05;;;18.50;99.90;;;;;;5051825;28;20067;-74
2021/07/08 04:47:44;;;;;;;1.75;0.65;;;18.40;99.90;;;;;;5051706;28;20033;-73
2021/07/08 04:50:15;;;;;;;0.08;0.08;;;18.30;99.90;;;;;;5051619;28;20447;-74
2021/07/08 04:52:42;;;;;;;0.43;0.43;;;18.10;99.90;;;;;;5051716;28;20171;-74
2021/07/08 04:55:09;;;;;;;0.00;0.00;;;18.00;99.90;;;;;;5033879;28;20107;-74
2021/07/08 04:57:35;;;;;;;0.38;0.38;;;18.10;99.90;;;;;;5051553;28;20054;-74
2021/07/08 05:00:03;;;;;;;0.00;0.00;;;18.30;99.90;;;;;;5033102;28;20025;-73
2021/07/08 05:02:28;;;;;;;0.00;0.00;;;18.30;99.90;;;;;;5033606;28;20061;-73
2021/07/08 05:04:54;;;;;;;0.10;0.10;;;18.40;99.90;;;;;;5033806;28;20397;-74
2021/07/08 05:07:20;;;;;;;0.00;0.00;;;18.50;99.90;;;;;;5051595;28;20481;-73
2021/07/08 05:09:45;;;;;;;0.00;0.00;;;18.40;99.90;;;;;;5049266;28;20077;-73
2021/07/08 05:12:11;;;;;;;0.00;0.00;;;18.50;99.90;;;;;;5049431;28;20108;-74
2021/07/08 05:14:37;;;;;;;0.00;0.00;;;18.50;99.90;;;;;;5024709;28;20025;-73
2021/07/08 05:17:04;;;;;;;0.00;0.00;;;18.50;99.90;;;;;;5040386;28;20021;-74
2021/07/08 05:19:30;;;;;;;1.63;1.00;;;18.50;99.90;;;;;;5050648;28;20029;-74
2021/07/08 05:21:57;;;;;;;0.00;0.00;;;18.30;99.90;;;;;;5050289;28;20037;-74
2021/07/08 05:24:24;;;;;;;0.00;0.00;;;18.20;99.90;;;;;;5039373;28;20116;-74
2021/07/08 05:26:50;;;;;;;0.00;0.00;;;18.30;99.90;;;;;;5050189;28;20536;-73
2021/07/08 05:29:16;;;;;;;0.20;0.20;;;18.20;99.90;;;;;;5050494;28;20111;-74
2021/07/08 05:31:43;;;;;;;0.05;0.05;;;18.30;99.90;;;;;;5049433;28;20021;-74
2021/07/08 05:34:09;;;;;;;0.00;0.00;;;18.30;99.90;;;;;;5050385;28;20029;-74
2021/07/08 05:36:35;;;;;;;0.38;0.38;;;18.40;99.90;;;;;;5049924;28;20025;-74
2021/07/08 05:39:02;;;;;;;0.15;0.15;;;18.40;99.90;;;;;;5050072;28;20079;-74
2021/07/08 05:41:27;;;;;;;0.00;0.00;;;18.40;99.90;;;;;;5049720;28;20096;-74
2021/07/08 05:43:53;;;;;;;0.00;0.00;;;18.50;99.90;;;;;;5044099;28;20105;-74
2021/07/08 05:46:20;;;;;;;0.00;0.00;;;18.40;99.90;;;;;;5041762;28;20551;-73
2021/07/08 05:48:45;;;;;;;0.28;0.25;;;18.50;99.90;;;;;;5049867;28;20102;-73
2021/07/08 05:51:12;;;;;;;0.98;0.95;;;18.40;99.90;;;;;;5049646;28;20473;-74
2021/07/08 05:53:38;;;;;;;0.00;0.00;;;18.30;99.90;;;;;;5043412;28;20033;-73
2021/07/08 05:56:04;;;;;;;0.65;0.57;;;18.30;99.90;;;;;;5036338;28;20021;-73
2021/07/08 05:58:30;;;;;;;0.00;0.00;;;18.30;99.90;;;;;;5050119;28;20024;-74
2021/07/08 06:00:57;;;;;;;0.80;0.57;;;18.40;99.90;;;;;;5049372;28;20025;-74
2021/07/08 06:03:23;;;;;;;0.20;0.20;;;18.40;99.90;;;;;;5041667;28;20341;-73
2021/07/08 06:05:50;;;;;;;0.00;0.00;;;18.40;99.90;;;;;;5026121;28;20021;-73
2021/07/08 06:08:16;;;;;;;0.28;0.28;;;18.50;99.90;;;;;;5022127;28;20223;-74
2021/07/08 06:10:42;;;;;;;0.00;0.00;;;18.40;99.90;;;;;;5052637;28;20032;-73
2021/07/08 06:13:09;;;;;;;0.20;0.20;;;18.60;99.90;;;;;;5053154;28;20104;-74
2021/07/08 06:15:35;;;;;;;0.00;0.00;;;18.60;99.90;;;;;;5043700;28;20495;-74
2021/07/08 06:18:01;;;;;;;0.65;0.28;;;18.60;99.90;;;;;;5052832;28;20021;-74
2021/07/08 06:20:27;;;;;;;1.30;0.82;;;18.60;99.90;;;;;;5047032;28;20048;-74
2021/07/08 06:22:54;;;;;;;0.00;0.00;;;18.50;99.90;;;;;;5054222;28;20112;-75
2021/07/08 06:25:20;;;;;;;0.75;0.75;;;18.30;99.90;;;;;;5037080;28;20021;-74
2021/07/08 06:27:45;;;;;;;1.33;1.17;;;18.50;99.90;;;;;;5052869;28;20479;-74
2021/07/08 06:30:12;;;;;;;2.55;1.75;;;18.50;99.90;;;;;;5053070;28;20043;-74
2021/07/08 06:32:38;;;;;;;0.00;0.00;;;18.40;99.90;;;;;;5051780;28;20398;-74
2021/07/08 06:35:07;;;;;;;0.20;0.20;;;18.40;99.90;;;;;;5041593;28;20024;-74
2021/07/08 06:37:33;;;;;;;1.55;0.43;;;18.50;99.90;;;;;;5052532;28;20432;-74
2021/07/08 06:39:59;;;;;;;0.00;0.00;;;18.60;99.90;;;;;;5052912;28;20120;-74
2021/07/08 06:42:25;;;;;;;0.00;0.00;;;18.50;99.90;;;;;;5052523;28;20051;-74
2021/07/08 06:44:50;;;;;;;2.15;1.02;;;18.30;99.90;;;;;;5053220;28;20040;-74
2021/07/08 06:47:18;;;;;;;0.20;0.20;;;18.20;99.90;;;;;;5052442;28;20083;-75
2021/07/08 06:49:44;;;;;;;0.65;0.40;;;18.20;99.90;;;;;;5052761;28;20033;-74
2021/07/08 06:52:12;;;;;;;0.00;0.00;;;18.20;99.90;;;;;;5054260;28;20028;-74
2021/07/08 06:54:38;;;;;;;0.52;0.52;;;18.40;99.90;;;;;;5054828;28;20464;-74
2021/07/08 06:57:04;;;;;;;0.80;0.52;;;18.30;99.90;;;;;;5054588;28;20409;-74
2021/07/08 06:59:30;;;;;;;1.38;1.13;;;18.20;99.90;;;;;;5052771;28;20021;-74
2021/07/08 07:01:55;;;;;;;0.03;0.03;;;18.10;99.90;;;;;;5050135;28;20032;-78
2021/07/08 07:04:22;;;;;;;1.15;0.80;;;18.10;99.90;;;;;;5044778;28;20048;-78
2021/07/08 07:06:48;;;;;;;0.00;0.00;;;18.10;99.90;;;;;;5020732;28;20660;-78
2021/07/08 07:09:14;;;;;;;0.00;0.00;;;18.20;99.90;;;;;;5016933;28;20041;-78
2021/07/08 07:11:40;;;;;;;0.00;0.00;;;18.30;99.90;;;;;;5049730;28;20032;-77
2021/07/08 07:14:08;;;;;;;1.15;1.05;;;18.40;99.90;;;;;;5023202;28;20102;-77
2021/07/08 07:16:34;;;;;;;0.52;0.52;;;18.60;99.90;;;;;;5041660;28;20029;-78
2021/07/08 07:19:00;;;;;;;1.13;0.65;;;18.60;99.90;;;;;;5046502;28;20370;-78
2021/07/08 07:21:25;;;;;;;0.45;0.28;;;18.70;99.90;;;;;;5052179;28;20029;-78
2021/07/08 07:23:51;;;;;;;0.00;0.00;;;18.60;99.90;;;;;;5026411;28;20033;-78
2021/07/08 07:26:21;;;;;;;0.10;0.10;;;18.60;99.90;;;;;;5028182;28;20499;-78
2021/07/08 07:28:47;;;;;;;0.03;0.03;;;18.60;99.90;;;;;;5042505;28;20112;-78
2021/07/08 07:31:14;;;;;;;0.00;0.00;;;18.70;99.90;;;;;;5046310;28;20025;-77
2021/07/08 07:33:42;;;;;;;0.00;0.00;;;18.70;99.90;;;;;;5042236;28;20076;-79
2021/07/08 07:36:10;;;;;;;0.00;0.00;;;18.80;99.90;;;;;;5046098;28;20052;-78
2021/07/08 07:38:38;;;;;;;1.02;1.02;;;18.80;99.90;;;;;;5041035;28;20075;-79
2021/07/08 07:41:04;;;;;;;0.28;0.15;;;18.90;99.90;;;;;;5052413;28;20113;-79
2021/07/08 07:43:30;;;;;;;0.13;0.13;;;18.90;99.90;;;;;;5043795;28;20104;-79
2021/07/08 07:45:55;;;;;;;0.35;0.35;;;18.90;99.90;;;;;;5046463;28;20028;-78
2021/07/08 07:48:21;;;;;;;0.00;0.00;;;18.90;99.90;;;;;;5042745;28;20025;-78
2021/07/08 07:50:47;;;;;;;0.10;0.10;;;18.80;99.90;;;;;;5051914;28;20147;-78
2021/07/08 07:53:12;;;;;;;0.03;0.03;;;18.90;99.90;;;;;;5045397;28;20036;-77
2021/07/08 07:55:38;;;;;;;0.10;0.10;;;18.90;99.90;;;;;;5051954;28;20476;-77
2021/07/08 07:58:05;;;;;;;1.90;1.00;;;18.90;99.90;;;;;;5025763;28;20052;-76
2021/07/08 08:00:32;;;;;;;0.00;0.00;;;18.80;99.90;;;;;;5051874;28;20020;-77
2021/07/08 08:02:58;;;;;;;3.53;1.63;;;18.70;99.90;;;;;;5050758;28;20021;-77
2021/07/08 08:10:43;;;;;;;0.00;0.00;;;18.80;99.90;;;;;;5051303;28;20048;-78
2021/07/08 08:13:10;;;;;;;1.15;1.08;;;19.10;99.90;;;;;;5050775;28;20052;-77
2021/07/08 08:15:36;;;;;;;0.00;0.00;;;19.20;99.90;;;;;;5033441;28;20432;-78
2021/07/08 08:18:03;;;;;;;0.00;0.00;;;19.30;99.90;;;;;;5051651;28;20228;-78
2021/07/08 08:20:30;;;;;;;0.77;0.75;;;19.20;99.90;;;;;;5052430;28;20062;-78
2021/07/08 08:22:57;;;;;;;0.70;0.25;;;19.30;99.90;;;;;;5043912;28;20536;-78
2021/07/08 08:25:24;;;;;;;0.00;0.00;;;19.30;99.90;;;;;;5044551;28;20040;-78
2021/07/08 08:27:50;;;;;;;5.05;2.35;;;19.40;99.90;;;;;;5045622;28;20021;-78
2021/07/08 08:30:16;;;;;;;0.05;0.05;;;19.40;99.90;;;;;;5038541;28;20110;-77
2021/07/08 08:32:43;;;;;;;0.70;0.70;;;19.40;99.90;;;;;;5045613;28;20024;-79
2021/07/08 08:35:10;;;;;;;1.48;0.52;;;19.20;99.90;;;;;;5035811;28;20080;-78
2021/07/08 08:37:37;;;;;;;0.20;0.20;;;19.00;99.90;;;;;;5051502;28;20055;-77
2021/07/08 08:40:04;;;;;;;1.50;1.40;;;19.00;99.90;;;;;;5051332;28;20025;-79
2021/07/08 08:42:31;;;;;;;1.77;1.67;;;18.90;99.90;;;;;;5024313;28;20032;-78
2021/07/08 08:44:57;;;;;;;0.17;0.17;;;18.90;99.90;;;;;;5044124;28;20047;-77
2021/07/08 08:47:23;;;;;;;1.40;1.30;;;19.00;99.90;;;;;;5050056;28;20294;-77
2021/07/08 08:49:53;;;;;;;1.40;0.40;;;19.00;99.90;;;;;;5037648;28;20132;-78
2021/07/08 08:52:20;;;;;;;2.00;1.17;;;18.90;99.90;;;;;;5026942;28;20504;-78
2021/07/08 08:54:47;;;;;;;0.38;0.38;;;18.90;99.90;;;;;;5050496;28;20025;-78
2021/07/08 08:57:13;;;;;;;1.27;1.17;;;18.80;99.90;;;;;;5024273;28;20021;-77
2021/07/08 08:59:39;;;;;;;1.42;1.33;;;18.80;99.90;;;;;;5029085;28;20049;-77
2021/07/08 09:02:20;;;;;;;3.40;2.38;;;18.60;99.90;;;;;;5051247;28;20425;-76
2021/07/08 09:04:47;;;;;;;1.13;0.47;;;18.60;99.90;;;;;;5046552;28;20388;-78
2021/07/08 09:07:28;;;;;;;2.20;0.43;;;18.40;99.90;;;;;;5051634;28;20057;-77
2021/07/08 09:09:56;;;;;;;1.20;0.80;;;18.50;99.90;;;;;;5047139;28;20036;-79
2021/07/08 09:12:23;;;;;;;5.97;1.88;;;18.50;99.90;;;;;;5050671;28;20055;-77
2021/07/08 09:14:53;;;;;;;2.30;1.38;;;18.50;99.90;;;;;;5029070;28;20045;-78
2021/07/08 09:17:22;;;;;;;0.68;0.68;;;18.50;99.90;;;;;;5035134;28;20036;-77
2021/07/08 09:20:04;;;;;;;0.00;0.00;;;18.50;99.90;;;;;;5050173;28;20104;-78
2021/07/08 09:22:30;;;;;;;0.00;0.00;;;18.60;99.90;;;;;;5040232;28;20372;-78
2021/07/08 09:24:56;;;;;;;0.68;0.68;;;18.90;99.90;;;;;;5039475;28;20028;-79
2021/07/08 09:27:30;;;;;;;0.43;0.43;;;18.90;99.90;;;;;;5040756;28;20028;-79
2021/07/08 09:29:56;;;;;;;0.10;0.10;;;19.00;99.90;;;;;;5047438;28;20025;-79
2021/07/08 09:32:23;;;;;;;2.75;2.40;;;18.90;99.90;;;;;;5050578;28;20025;-79
2021/07/08 09:34:55;;;;;;;0.00;0.00;;;18.80;99.90;;;;;;5020396;28;20337;-77
2021/07/08 09:37:29;;;;;;;0.00;0.00;;;18.90;99.90;;;;;;5015967;28;20021;-80
2021/07/08 09:40:00;;;;;;;0.82;0.68;;;19.10;99.90;;;;;;5049636;28;20087;-78
2021/07/08 09:42:34;;;;;;;1.35;1.27;;;19.40;99.90;;;;;;5048947;28;20017;-79
2021/07/08 09:45:07;;;;;;;0.30;0.30;;;19.30;99.90;;;;;;5050711;28;20519;-79
2021/07/08 09:47:34;;;;;;;1.20;1.13;;;19.30;99.90;;;;;;5045227;28;20477;-77
2021/07/08 09:50:00;;;;;;;0.30;0.30;;;19.10;99.90;;;;;;5053365;28;20063;-77
2021/07/08 09:52:26;;;;;;;1.38;1.30;;;19.10;99.90;;;;;;5040704;28;20079;-77
2021/07/08 09:57:47;;;;;;;0.00;0.00;;;19.20;99.90;;;;;;5055770;28;20029;-78
2021/07/08 10:00:19;;;;;;;1.48;1.48;;;19.40;99.90;;;;;;5020181;28;20063;-77
2021/07/08 10:02:46;;;;;;;0.63;0.63;;;19.40;99.90;;;;;;5026541;28;20104;-77
2021/07/08 10:05:13;;;;;;;0.00;0.00;;;19.50;99.90;;;;;;5044755;28;20055;-77
2021/07/08 10:07:38;;;;;;;0.00;0.00;;;19.50;99.90;;;;;;5053455;28;20100;-75
2021/07/08 10:10:06;;;;;;;0.00;0.00;;;19.60;99.90;;;;;;5052312;28;20104;-75
2021/07/08 10:12:33;;;;;;;2.47;0.77;;;19.50;99.90;;;;;;5052171;28;20029;-75
2021/07/08 10:15:05;;;;;;;1.60;1.15;;;19.60;99.90;;;;;;5042996;28;20021;-71
2021/07/08 10:17:31;;;;;;;;;;;19.40;99.90;;;;;;5053409;28;20092;-78
2021/07/08 10:19:57;;;;;;;0.00;0.00;;;19.40;99.90;;;;;;5052730;28;20356;-78
2021/07/08 10:22:23;;;;;;;0.00;0.00;;;19.50;99.90;;;;;;5052125;28;20064;-75
2021/07/08 10:24:50;;;;;;;0.65;0.55;;;19.50;99.90;;;;;;5052674;28;20033;-75
2021/07/08 10:27:21;;;;;;;0.00;0.00;;;19.40;99.90;;;;;;5052334;28;20067;-75
2021/07/08 10:29:48;;;;;;;0.00;0.00;;;19.30;99.90;;;;;;5052988;28;20068;-75
2021/07/08 10:32:15;;;;;;;0.00;0.00;;;19.40;99.90;;;;;;5052339;28;20455;-75
2021/07/08 10:34:49;;;;;;;0.00;0.00;;;19.50;99.90;;;;;;5051379;28;20025;-75
2021/07/08 10:37:27;;;;;;;0.10;0.10;;;19.50;99.90;;;;;;5037257;28;20033;-75
2021/07/08 10:39:55;;;;;;;0.00;0.00;;;19.60;99.90;;;;;;5051643;28;20024;-76
2021/07/08 10:42:50;;;;;;;0.10;0.10;;;19.60;99.90;;;;;;5020757;28;20074;-75
2021/07/08 10:45:22;;;;;;;0.00;0.00;;;19.80;99.90;;;;;;5000507;28;20025;-75
2021/07/08 10:47:52;;;;;;;0.00;0.00;;;19.70;99.90;;;;;;5052205;28;20096;-75
2021/07/08 10:50:29;;;;;;;0.65;0.65;;;19.60;99.90;;;;;;5052002;28;20445;-75
2021/07/08 10:52:56;;;;;;;0.82;0.82;;;19.60;99.90;;;;;;5050283;28;20021;-75
2021/07/08 10:55:41;;;;;;;0.00;0.00;;;19.70;99.90;;;;;;5052435;28;20102;-75
2021/07/08 10:58:28;;;;;;;0.00;0.00;;;20.50;99.90;;;;;;5039270;28;20196;-75
2021/07/08 11:00:53;;;;;;;0.00;0.00;;;21.10;99.90;;;;;;5051602;28;20086;-75
2021/07/08 11:03:45;;;;;;;0.00;0.00;;;20.80;99.90;;;;;;5052664;28;20045;-75
2021/07/08 11:06:38;;;;;;;0.00;0.00;;;20.70;99.90;;;;;;5051633;28;20086;-75
2021/07/08 11:09:19;;;;;;;0.00;0.00;;;20.70;99.90;;;;;;5048101;28;20025;-75
2021/07/08 11:11:50;;;;;;;0.00;0.00;;;20.60;99.90;;;;;;5051499;28;20484;-75
2021/07/08 11:14:17;;;;;;;0.00;0.00;;;20.50;99.90;;;;;;5052175;28;20035;-75
2021/07/08 11:16:45;;;;;;;0.00;0.00;;;20.50;99.90;;;;;;5051754;28;20028;-75
2021/07/08 11:19:13;;;;;;;0.45;0.45;;;20.50;99.90;;;;;;5052151;28;20380;-75
2021/07/08 11:21:51;;;;;;;0.10;0.10;;;20.70;99.90;;;;;;5051937;28;20507;-75
2021/07/08 11:24:25;;;;;;;0.10;0.10;;;20.70;99.90;;;;;;5050251;28;20029;-75
2021/07/08 11:27:00;;;;;;;0.08;0.08;;;20.50;99.90;;;;;;5051576;28;20112;-75
2021/07/08 11:29:48;;;;;;;0.00;0.00;;;20.50;99.90;;;;;;5052305;28;20029;-75
2021/07/08 11:32:28;;;;;;;0.00;0.00;;;20.60;99.90;;;;;;5049810;28;20024;-75
2021/07/08 11:34:58;;;;;;;0.20;0.20;;;20.40;99.90;;;;;;5049076;28;20119;-75
2021/07/08 11:37:40;;;;;;;0.00;0.00;;;20.50;99.90;;;;;;5042183;28;20017;-75
2021/07/08 11:40:15;;;;;;;0.43;0.30;;;20.80;99.90;;;;;;5053131;28;20048;-75
2021/07/08 11:42:43;;;;;;;0.00;0.00;;;21.10;99.90;;;;;;5052999;28;20029;-75
2021/07/08 11:45:15;;;;;;;0.80;0.80;;;21.10;99.90;;;;;;5053444;28;20020;-78
2021/07/08 11:47:51;;;;;;;2.20;0.65;;;21.00;99.90;;;;;;5052601;28;20377;-74
2021/07/08 11:50:27;;;;;;;0.00;0.00;;;20.70;99.90;;;;;;5052422;28;20610;-74
2021/07/08 11:53:16;;;;;;;1.17;1.08;;;20.70;99.90;;;;;;5039437;28;20025;-74
2021/07/08 11:55:42;;;;;;;0.25;0.25;;;20.50;99.90;;;;;;5052313;28;20051;-74
2021/07/08 11:58:09;;;;;;;1.83;0.75;;;20.50;99.90;;;;;;5051118;28;20021;-74
2021/07/08 12:00:40;;;;;;;0.00;0.00;;;20.30;99.90;;;;;;5052231;28;20099;-74
2021/07/08 12:03:35;;;;;;;0.00;0.00;;;20.40;99.90;;;;;;5051726;28;20013;-78
2021/07/08 12:06:30;;;;;;;1.48;1.23;;;20.20;99.90;;;;;;5038008;28;20025;-78
2021/07/08 12:09:05;;;;;;;0.00;0.00;;;20.00;99.90;;;;;;5037770;28;20433;-77
2021/07/08 12:11:43;;;;;;;1.20;1.10;;;20.10;99.90;;;;;;5040643;28;20028;-77
2021/07/08 12:14:14;;;;;;;0.10;0.10;;;20.20;99.90;;;;;;5040802;28;20111;-78
2021/07/08 12:16:45;;;;;;;0.20;0.20;;;20.20;99.90;;;;;;5041186;28;20028;-79
2021/07/08 12:19:30;;;;;;;0.00;0.00;;;20.20;99.90;;;;;;5053420;28;20377;-79
2021/07/08 12:21:58;;;;;;;0.55;0.55;;;20.30;99.90;;;;;;5045946;28;20035;-78
2021/07/08 12:24:25;;;;;;;0.00;0.00;;;20.30;99.90;;;;;;5019990;28;20078;-78
2021/07/08 12:26:56;;;;;;;0.20;0.20;;;20.20;99.90;;;;;;5047018;28;20102;-78
2021/07/08 12:29:24;;;;;;;0.00;0.00;;;20.30;99.90;;;;;;5039505;28;20032;-81
2021/07/08 12:31:59;;;;;;;0.43;0.38;;;20.10;99.90;;;;;;5048353;28;20029;-83
2021/07/08 12:35:04;;;;;;;0.10;0.10;;;20.20;99.90;;;;;;5046193;28;20032;-80
2021/07/08 12:37:33;;;;;;;0.80;0.30;;;20.10;99.90;;;;;;5044087;28;20058;-79
2021/07/08 12:40:10;;;;;;;4.95;1.02;;;20.00;99.90;;;;;;5055735;28;20017;-81
2021/07/08 12:42:44;;;;;;;1.48;1.10;;;19.90;99.90;;;;;;5030709;28;20457;-81
2021/07/08 12:45:17;;;;;;;4.47;3.38;;;19.70;99.90;;;;;;5045211;28;20043;-81
2021/07/08 12:47:48;;;;;;;0.10;0.10;;;19.60;99.90;;;;;;5023036;28;20036;-80
2021/07/08 12:50:16;;;;;;;8.70;5.43;;;19.40;99.90;;;;;;5048378;28;20400;-81
2021/07/08 12:52:43;;;;;;;0.05;0.05;;;19.30;99.90;;;;;;5024821;28;20039;-82
2021/07/08 12:55:49;;;;;;;5.93;3.65;;;19.00;99.90;;;;;;5049518;28;20480;-80
2021/07/08 12:58:24;;;;;;;0.52;0.52;;;18.50;99.90;;;;;;5023228;28;20029;-79
2021/07/08 13:00:51;;;;;;;4.88;1.92;;;18.40;99.90;;;;;;5024330;28;20043;-82
2021/07/08 13:03:21;;;;;;;0.00;0.00;;;18.40;99.90;;;;;;5052115;28;20160;-81